Time;durP1;ratioP1;P1;durP2;ratioP2;P2;SDS_P1;SDS_P2;PMS_P1;PMS_P2;Temp;Humidity;BMP_temperature;BMP_pressure;BME280_temperature;BME280_humidity;BME280_pressure;Samples;Min_cycle;Max_cycle;Signal;HPM_P1;HPM_P2
2021/09/29 00:01:50;;;;;;;270.80;22.27;;;;;;;7.39;77.50;99648.34;2175373;81;21416;-80
2021/09/29 00:04:50;;;;;;;13.03;6.93;;;;;;;7.34;77.71;99640.80;2173069;81;21009;-79
2021/09/29 00:07:51;;;;;;;12.03;6.30;;;;;;;7.33;77.63;99643.80;2172825;82;21041;-79
2021/09/29 00:10:51;;;;;;;9.50;6.10;;;;;;;7.33;77.74;99648.11;2173334;81;20972;-79
2021/09/29 00:13:52;;;;;;;12.30;6.50;;;;;;;7.33;77.83;99642.50;2172993;81;21000;-79
2021/09/29 00:16:52;;;;;;;8.80;6.50;;;;;;;7.34;77.87;99650.77;2172686;81;21313;-78
2021/09/29 00:19:53;;;;;;;9.40;6.70;;;;;;;7.33;77.68;99645.52;2172791;82;21006;-79
2021/09/29 00:22:53;;;;;;;10.27;6.73;;;;;;;7.30;77.79;99639.80;2172852;81;21012;-79
2021/09/29 00:25:54;;;;;;;10.53;6.90;;;;;;;7.28;77.78;99641.86;2172899;81;20984;-79
2021/09/29 00:28:54;;;;;;;10.70;6.97;;;;;;;7.25;78.03;99640.45;2172810;81;20933;-79
2021/09/29 00:31:55;;;;;;;8.60;7.00;;;;;;;7.22;77.90;99640.34;2172782;81;21372;-79
2021/09/29 00:34:55;;;;;;;14.23;7.20;;;;;;;7.17;78.27;99634.08;2172962;81;21368;-79
2021/09/29 00:37:56;;;;;;;12.70;7.67;;;;;;;7.15;78.17;99636.63;2172904;81;20999;-79
2021/09/29 00:40:56;;;;;;;8.57;6.40;;;;;;;7.12;78.26;99633.91;2172834;81;20925;-79
2021/09/29 00:43:57;;;;;;;10.73;7.00;;;;;;;7.08;78.31;99628.55;2173087;81;20905;-79
2021/09/29 00:46:57;;;;;;;11.50;7.47;;;;;;;7.04;78.42;99631.44;2172757;81;20980;-79
2021/09/29 00:49:57;;;;;;;10.23;6.67;;;;;;;6.98;78.46;99624.30;2172873;81;20996;-79
2021/09/29 00:52:58;;;;;;;10.60;6.97;;;;;;;6.96;78.76;99620.76;2172957;81;20957;-79
2021/09/29 00:55:58;;;;;;;9.60;6.87;;;;;;;6.96;78.61;99624.66;2173031;82;20984;-79
2021/09/29 00:58:59;;;;;;;11.77;7.53;;;;;;;6.94;78.70;99625.01;2173090;81;21305;-79
2021/09/29 01:01:59;;;;;;;10.80;6.63;;;;;;;6.95;78.87;99619.41;2170596;82;21032;-79
2021/09/29 01:05:00;;;;;;;11.57;7.17;;;;;;;6.93;79.04;99621.02;2170671;81;20980;-79
2021/09/29 01:08:01;;;;;;;9.53;7.00;;;;;;;6.89;78.97;99620.02;2170779;82;21039;-79
2021/09/29 01:11:01;;;;;;;10.77;7.10;;;;;;;6.86;78.90;99618.60;2171761;81;20977;-80
2021/09/29 01:14:02;;;;;;;9.63;6.53;;;;;;;6.82;79.28;99615.42;2171509;81;20941;-79
2021/09/29 01:17:02;;;;;;;13.67;7.70;;;;;;;6.80;79.32;99613.59;2172068;81;20929;-79
2021/09/29 01:20:02;;;;;;;10.97;7.53;;;;;;;6.77;79.44;99616.95;2170375;82;21003;-78
2021/09/29 01:23:03;;;;;;;15.73;7.90;;;;;;;6.76;79.39;99615.18;2169756;81;20941;-78
2021/09/29 01:26:06;;;;;;;14.10;8.43;;;;;;;6.75;79.42;99609.93;2171619;81;20992;-79
2021/09/29 01:29:06;;;;;;;11.10;7.50;;;;;;;6.75;79.62;99613.83;2125587;84;21008;-78
2021/09/29 01:32:06;;;;;;;11.87;7.27;;;;;;;6.74;79.63;99610.76;2128257;84;21054;-78
2021/09/29 01:35:07;;;;;;;12.13;7.20;;;;;;;6.76;79.74;99617.77;2128097;84;20932;-79
2021/09/29 01:38:07;;;;;;;11.47;7.27;;;;;;;6.79;79.83;99619.61;2127943;84;20936;-79
2021/09/29 01:41:08;;;;;;;13.00;8.00;;;;;;;6.79;79.55;99610.11;2128170;84;21356;-79
2021/09/29 01:44:08;;;;;;;10.90;8.33;;;;;;;6.79;79.69;99611.41;2128251;84;21401;-79
2021/09/29 01:47:09;;;;;;;10.03;6.93;;;;;;;6.81;79.46;99614.95;2128115;84;20976;-79
2021/09/29 01:50:10;;;;;;;13.97;6.90;;;;;;;6.78;79.78;99620.43;2128138;84;20944;-78
2021/09/29 01:53:10;;;;;;;11.10;7.73;;;;;;;6.71;79.15;99615.00;2127880;84;21402;-78
2021/09/29 01:56:11;;;;;;;21.63;7.80;;;;;;;6.62;78.90;99615.05;2127591;84;20972;-78
2021/09/29 01:59:12;;;;;;;9.40;6.77;;;;;;;6.54;79.01;99613.86;2127807;84;20981;-79
2021/09/29 02:02:12;;;;;;;10.77;7.60;;;;;;;6.39;78.60;99607.23;2127064;84;21054;-78
2021/09/29 02:05:13;;;;;;;9.63;6.93;;;;;;;6.28;78.71;99599.84;2127877;83;20909;-79
2021/09/29 02:08:14;;;;;;;12.57;7.07;;;;;;;6.18;78.91;99600.30;2127676;83;21046;-79
2021/09/29 02:11:15;;;;;;;14.33;7.60;;;;;;;6.10;78.83;99603.87;2127247;84;20940;-79
2021/09/29 02:14:19;;;;;;;145.97;18.57;;;;;;;6.04;78.78;99595.39;2128081;83;21011;-80
2021/09/29 02:17:19;;;;;;;13.03;7.73;;;;;;;6.05;79.38;99594.98;2172021;81;21020;-79
2021/09/29 02:20:19;;;;;;;39.40;9.87;;;;;;;6.04;79.03;99604.46;2169797;81;21300;-78
2021/09/29 02:23:21;;;;;;;58.17;10.20;;;;;;;6.00;79.28;99596.50;2169688;82;20973;-78
2021/09/29 02:26:21;;;;;;;38.90;9.43;;;;;;;6.47;90.81;99593.69;2169542;81;20952;-80
2021/09/29 02:29:22;;;;;;;10.23;7.07;;;;;;;7.15;80.01;99585.11;2169708;81;21009;-79
2021/09/29 02:32:22;;;;;;;8.37;6.87;;;;;;;6.87;77.81;99581.45;2172097;81;21004;-79
2021/09/29 02:35:23;;;;;;;12.80;8.33;;;;;;;6.57;77.19;99589.34;2171097;81;20960;-79
2021/09/29 02:38:23;;;;;;;31.97;9.27;;;;;;;6.31;77.05;99593.08;2169883;81;20993;-79
2021/09/29 02:41:24;;;;;;;15.90;8.20;;;;;;;6.13;77.67;99591.03;2169938;82;20941;-79
2021/09/29 02:44:24;;;;;;;13.40;7.73;;;;;;;6.07;77.83;99590.78;2172024;82;20995;-78
2021/09/29 02:47:25;;;;;;;11.27;7.60;;;;;;;5.98;77.78;99591.66;2172235;82;21000;-78
2021/09/29 02:50:25;;;;;;;13.17;7.73;;;;;;;5.81;77.83;99589.63;2171044;82;20985;-79
2021/09/29 02:53:28;;;;;;;10.37;7.40;;;;;;;5.67;77.66;99582.56;2171469;81;20977;-78
2021/09/29 02:56:29;;;;;;;303.53;28.00;;;;;;;5.55;77.78;99585.03;2125949;83;21027;-79
2021/09/29 02:59:29;;;;;;;29.93;9.13;;;;;;;5.44;78.17;99589.34;2171115;81;20957;-78
2021/09/29 03:02:30;;;;;;;21.20;8.00;;;;;;;5.41;78.25;99585.73;2169902;81;20992;-78
2021/09/29 03:05:30;;;;;;;23.73;9.07;;;;;;;5.40;79.04;99578.78;2170057;82;20988;-79
2021/09/29 03:08:31;;;;;;;12.23;8.03;;;;;;;5.39;78.79;99579.19;2169880;81;20997;-79
2021/09/29 03:11:31;;;;;;;14.73;8.90;;;;;;;5.34;78.62;99579.80;2169853;81;21292;-79
2021/09/29 03:14:32;;;;;;;27.83;8.47;;;;;;;5.32;78.66;99581.44;2171428;81;20960;-78
2021/09/29 03:17:32;;;;;;;26.03;9.50;;;;;;;5.31;78.77;99577.08;2170631;82;20993;-79
2021/09/29 03:20:32;;;;;;;16.67;9.50;;;;;;;5.30;79.22;99574.91;2171700;81;20933;-79
2021/09/29 03:23:33;;;;;;;23.90;8.70;;;;;;;5.30;79.19;99572.31;2170639;81;20996;-79
2021/09/29 03:26:33;;;;;;;15.63;8.90;;;;;;;5.30;79.08;99581.78;2169446;81;21408;-79
2021/09/29 03:29:37;;;;;;;30.87;9.70;;;;;;;5.27;78.82;99571.30;2170057;82;21084;-80
2021/09/29 03:32:37;;;;;;;19.93;10.00;;;;;;;5.16;78.50;99572.48;2169504;81;21047;-78
2021/09/29 03:35:38;;;;;;;24.10;10.80;;;;;;;5.12;78.72;99567.58;2171560;81;21017;-79
2021/09/29 03:38:38;;;;;;;20.03;10.50;;;;;;;5.10;79.08;99571.80;2169755;81;21353;-79
2021/09/29 03:41:38;;;;;;;17.93;10.60;;;;;;;5.07;78.79;99568.67;2169206;81;21344;-79
2021/09/29 03:44:39;;;;;;;18.57;10.43;;;;;;;4.96;78.53;99556.95;2169980;81;20989;-79
2021/09/29 03:47:43;;;;;;;25.03;11.03;;;;;;;4.90;78.68;99552.80;2169971;81;20984;-79
2021/09/29 03:50:45;;;;;;;17.37;10.60;;;;;;;4.91;79.70;99551.09;2170543;82;21091;-79
2021/09/29 03:53:45;;;;;;;22.90;12.37;;;;;;;4.93;79.37;99549.05;2169318;81;21012;-79
2021/09/29 03:56:46;;;;;;;14.93;10.87;;;;;;;4.97;80.22;99550.97;2170842;81;20961;-79
2021/09/29 03:59:46;;;;;;;18.97;11.77;;;;;;;5.00;80.37;99543.34;2170959;82;20999;-79
2021/09/29 04:02:47;;;;;;;17.97;11.10;;;;;;;5.08;81.05;99543.27;2170955;81;21063;-80
2021/09/29 04:05:48;;;;;;;17.90;12.53;;;;;;;5.11;80.58;99546.41;2171561;82;20981;-80
2021/09/29 04:08:48;;;;;;;19.03;11.33;;;;;;;5.10;80.77;99537.75;2171250;81;21007;-78
2021/09/29 04:11:49;;;;;;;21.97;12.13;;;;;;;5.14;80.80;99537.48;2171428;82;20943;-81
2021/09/29 04:14:50;;;;;;;36.03;13.40;;;;;;;5.19;81.13;99539.86;2171015;81;20984;-79
2021/09/29 04:17:50;;;;;;;26.73;13.60;;;;;;;5.20;81.66;99536.49;2171836;81;20957;-81
2021/09/29 04:20:51;;;;;;;22.93;13.40;;;;;;;5.25;81.92;99535.40;2170657;81;20992;-80
2021/09/29 04:23:51;;;;;;;21.93;13.77;;;;;;;5.31;82.05;99530.48;2170522;81;20960;-81
2021/09/29 04:26:51;;;;;;;22.60;13.43;;;;;;;5.33;82.23;99524.56;2170722;81;21324;-81
2021/09/29 04:29:52;;;;;;;22.73;13.77;;;;;;;5.38;82.15;99520.87;2170931;82;20944;-81
2021/09/29 04:32:55;;;;;;;21.43;12.00;;;;;;;5.39;81.64;99518.75;2171393;81;21023;-79
2021/09/29 04:35:55;;;;;;;23.50;13.00;;;;;;;5.36;81.46;99511.75;2172259;81;20925;-82
2021/09/29 04:38:55;;;;;;;22.20;12.83;;;;;;;5.39;81.65;99513.17;2172381;81;20992;-80
2021/09/29 04:41:56;;;;;;;19.23;12.50;;;;;;;5.40;81.24;99515.34;2171100;81;20992;-79
2021/09/29 04:44:56;;;;;;;300.90;27.63;;;;;;;5.42;81.52;99515.00;2171878;81;21767;-80
2021/09/29 04:47:57;;;;;;;39.13;11.83;;;;;;;6.90;93.61;99506.71;2171561;81;21381;-80
2021/09/29 04:50:57;;;;;;;21.57;12.23;;;;;;;8.83;89.98;99507.17;2171807;81;20972;-80
2021/09/29 04:53:58;;;;;;;19.20;12.20;;;;;;;10.01;83.23;99501.70;2170670;81;20960;-79
2021/09/29 04:56:58;;;;;;;23.30;10.93;;;;;;;10.85;79.36;99498.03;2170842;81;20921;-79
2021/09/29 04:59:59;;;;;;;21.10;11.13;;;;;;;11.59;79.16;99491.66;2171355;81;21008;-81
2021/09/29 05:03:00;;;;;;;22.33;11.13;;;;;;;12.15;74.23;99486.14;2176110;82;21383;-81
2021/09/29 05:06:00;;;;;;;16.47;10.57;;;;;;;11.94;72.34;99477.91;2174663;82;20993;-81
2021/09/29 05:09:01;;;;;;;16.90;10.63;;;;;;;12.10;70.22;99479.48;2169538;81;20956;-82
2021/09/29 05:12:01;;;;;;;20.73;11.00;;;;;;;10.95;67.50;99475.59;2170653;81;20955;-81
2021/09/29 05:15:02;;;;;;;16.30;10.87;;;;;;;9.81;68.39;99486.87;2169603;81;21015;-83
2021/09/29 05:18:02;;;;;;;18.73;11.50;;;;;;;9.05;69.65;99486.53;2170306;81;21012;-83
2021/09/29 05:21:03;;;;;;;15.83;11.60;;;;;;;8.56;70.95;99487.69;2160654;82;20976;-82
2021/09/29 05:24:03;;;;;;;19.00;11.77;;;;;;;8.15;71.93;99492.47;2168849;81;20940;-81
2021/09/29 05:27:04;;;;;;;21.47;11.60;;;;;;;7.91;73.10;99491.68;2169327;81;20968;-82
2021/09/29 05:30:05;;;;;;;21.30;12.83;;;;;;;7.75;73.76;99490.68;2169401;81;21004;-81
2021/09/29 05:33:05;;;;;;;24.87;13.70;;;;;;;7.66;74.54;99485.64;2168657;81;21000;-80
2021/09/29 05:36:06;;;;;;;24.50;14.03;;;;;;;7.66;74.76;99484.34;2169561;82;21027;-82
2021/09/29 05:39:06;;;;;;;26.67;13.80;;;;;;;7.70;75.25;99484.45;2169987;81;21031;-81
2021/09/29 05:42:07;;;;;;;25.60;13.97;;;;;;;7.75;75.58;99474.67;2170030;81;20952;-81
2021/09/29 05:45:07;;;;;;;22.73;13.77;;;;;;;7.84;75.94;99483.22;2169803;81;20992;-82
2021/09/29 05:48:08;;;;;;;19.77;13.23;;;;;;;7.92;76.36;99473.95;2170443;81;21414;-81
2021/09/29 05:51:08;;;;;;;23.57;13.20;;;;;;;7.99;76.69;99475.91;2169728;81;20969;-80
2021/09/29 05:54:08;;;;;;;27.27;13.93;;;;;;;8.08;76.96;99477.92;2169988;81;21036;-81
2021/09/29 05:57:09;;;;;;;35.03;14.67;;;;;;;8.16;77.57;99474.73;2170040;81;20965;-80
2021/09/29 06:00:09;;;;;;;21.70;13.90;;;;;;;8.28;77.06;99463.41;2170210;81;20949;-80
2021/09/29 06:03:10;;;;;;;19.73;12.73;;;;;;;8.46;77.53;99473.52;2170786;81;21020;-81
2021/09/29 06:06:11;;;;;;;20.43;13.50;;;;;;;8.59;77.57;99466.54;2172052;81;21016;-80
2021/09/29 06:09:11;;;;;;;26.40;14.07;;;;;;;8.73;77.62;99461.77;2171708;81;20941;-80
2021/09/29 06:12:12;;;;;;;26.87;13.63;;;;;;;8.86;77.31;99460.40;2171137;81;20956;-80
2021/09/29 06:15:29;;;;;;;18.87;12.67;;;;;;;9.07;77.17;99457.09;2170113;81;20948;-79
2021/09/29 06:18:32;;;;;;;22.33;12.10;;;;;;;9.26;76.78;99456.75;2160642;82;21383;-79
2021/09/29 06:21:32;;;;;;;23.80;13.27;;;;;;;9.41;75.95;99449.75;2170620;81;20956;-79
2021/09/29 06:24:33;;;;;;;18.63;12.53;;;;;;;9.54;75.42;99466.63;2171445;81;20945;-80
2021/09/29 06:27:33;;;;;;;21.23;12.17;;;;;;;9.62;75.09;99460.30;2171509;81;20959;-80
2021/09/29 06:30:34;;;;;;;17.93;12.00;;;;;;;9.71;75.14;99460.11;2170916;81;20952;-80
2021/09/29 06:33:34;;;;;;;24.13;12.23;;;;;;;9.85;75.01;99452.63;2170781;81;21000;-80
2021/09/29 06:36:34;;;;;;;21.60;13.50;;;;;;;9.90;74.34;99462.74;2171437;81;20956;-81
2021/09/29 06:39:38;;;;;;;20.70;12.33;;;;;;;9.94;73.68;99468.91;2170920;81;20972;-80
2021/09/29 06:42:39;;;;;;;19.90;11.70;;;;;;;10.01;73.51;99462.58;2171752;81;20936;-81
2021/09/29 06:45:39;;;;;;;17.77;12.40;;;;;;;10.07;73.39;99467.94;2171513;81;20957;-80
2021/09/29 06:48:42;;;;;;;22.33;13.37;;;;;;;10.08;73.17;99473.61;2160834;82;20936;-81
2021/09/29 06:51:43;;;;;;;18.17;11.70;;;;;;;10.09;72.98;99471.47;2171619;82;20996;-80
2021/09/29 06:54:43;;;;;;;17.47;12.30;;;;;;;10.19;73.10;99473.44;2171459;81;21667;-80
2021/09/29 06:57:44;;;;;;;25.53;13.23;;;;;;;10.20;72.87;99472.63;2171258;81;21373;-80
2021/09/29 07:00:44;;;;;;;22.77;12.53;;;;;;;10.30;72.83;99478.06;2171206;81;20957;-80
2021/09/29 07:03:45;;;;;;;20.50;12.73;;;;;;;10.36;72.25;99459.51;2170960;81;21440;-80
2021/09/29 07:06:45;;;;;;;14.53;12.30;;;;;;;10.42;72.53;99468.81;2171313;81;20991;-80
2021/09/29 07:09:46;;;;;;;21.33;14.00;;;;;;;10.50;71.89;99476.39;2171287;81;20929;-81
2021/09/29 07:12:46;;;;;;;19.97;12.87;;;;;;;10.57;72.27;99472.19;2171599;82;21348;-80
2021/09/29 07:15:47;;;;;;;16.57;12.83;;;;;;;10.67;71.75;99466.31;2171152;81;20981;-80
2021/09/29 07:18:49;;;;;;;19.70;12.37;;;;;;;10.73;72.08;99467.75;2171616;81;20925;-81
2021/09/29 07:21:49;;;;;;;20.23;13.67;;;;;;;10.83;71.88;99480.14;2170603;81;21005;-81
2021/09/29 07:24:50;;;;;;;18.80;13.23;;;;;;;10.85;71.25;99475.84;2170919;81;20961;-80
2021/09/29 07:27:51;;;;;;;17.30;12.30;;;;;;;10.87;71.85;99475.86;2170878;81;20976;-80
2021/09/29 07:30:52;;;;;;;18.83;13.27;;;;;;;11.02;71.86;99476.17;2170975;81;20928;-81
2021/09/29 07:33:52;;;;;;;17.07;13.03;;;;;;;11.23;71.25;99466.56;2171099;81;21008;-79
2021/09/29 07:36:53;;;;;;;17.10;12.50;;;;;;;11.38;70.64;99462.97;2171650;81;20952;-80
2021/09/29 07:39:53;;;;;;;17.87;12.50;;;;;;;11.33;69.99;99468.96;2171258;82;21379;-79
2021/09/29 07:42:55;;;;;;;19.87;12.63;;;;;;;11.39;70.23;99460.80;2170564;81;21387;-79
2021/09/29 07:45:55;;;;;;;23.83;13.55;;;;;;;11.52;69.96;99466.26;2171076;81;21335;-80
2021/09/29 07:48:56;;;;;;;21.93;12.53;;;;;;;11.62;68.88;99456.41;2170880;81;20956;-79
2021/09/29 07:51:58;;;;;;;18.33;13.40;;;;;;;11.61;68.66;99470.34;2170972;81;20921;-80
2021/09/29 07:54:58;;;;;;;14.35;11.97;;;;;;;11.67;68.84;99453.02;2171366;81;21011;-81
2021/09/29 07:57:59;;;;;;;18.98;12.53;;;;;;;11.86;69.60;99460.78;2171181;81;21328;-81
2021/09/29 08:01:00;;;;;;;21.80;11.83;;;;;;;12.19;69.05;99449.99;2170690;81;20980;-80
2021/09/29 08:04:01;;;;;;;21.62;12.63;;;;;;;12.34;67.80;99458.50;2171906;82;20993;-81
2021/09/29 08:07:01;;;;;;;21.48;13.55;;;;;;;12.37;67.61;99455.50;2169140;81;21012;-81
2021/09/29 08:10:02;;;;;;;17.40;12.60;;;;;;;12.37;66.68;99457.23;2169202;82;20960;-79
2021/09/29 08:13:03;;;;;;;14.55;11.53;;;;;;;12.29;66.90;99453.63;2169031;82;20991;-79
2021/09/29 08:16:04;;;;;;;19.07;12.00;;;;;;;12.32;67.12;99459.78;2169075;82;20956;-79
2021/09/29 08:19:05;;;;;;;18.25;12.60;;;;;;;12.41;67.36;99447.26;2168677;82;21371;-81
2021/09/29 08:22:08;;;;;;;21.97;13.20;;;;;;;12.49;67.07;99452.59;2168311;82;21372;-79
2021/09/29 08:28:32;;;;;;;542.90;63.02;;;;;;;12.71;66.66;99454.22;2160030;82;20991;-82
2021/09/29 08:31:30;;;;;;;26.70;13.55;;;;;;;12.97;66.70;99458.47;2168658;81;21020;-81
2021/09/29 08:37:59;;;;;;;26.60;13.13;;;;;;;13.29;65.43;99454.97;2160891;82;21364;-79
2021/09/29 08:41:17;;;;;;;21.48;12.90;;;;;;;13.39;64.94;99455.50;2168327;81;21000;-81
2021/09/29 08:44:06;;;;;;;20.15;11.57;;;;;;;13.59;64.67;99460.06;2168730;81;20979;-81
2021/09/29 08:47:09;;;;;;;20.70;12.23;;;;;;;13.66;63.31;99462.77;2169556;81;20995;-79
2021/09/29 08:50:19;;;;;;;27.23;12.90;;;;;;;13.55;63.55;99465.72;2169337;81;20956;-80
2021/09/29 08:56:46;;;;;;;17.48;12.55;;;;;;;13.52;63.93;99467.00;2160368;82;20945;-80
2021/09/29 09:16:21;;;;;;;18.82;14.40;;;;;;;13.60;64.81;99459.20;2169646;82;21040;-79
2021/09/29 09:19:14;;;;;;;23.83;14.93;;;;;;;13.56;65.03;99454.36;2166396;81;20933;-79
2021/09/29 09:22:15;;;;;;;22.67;14.60;;;;;;;13.54;65.42;99460.02;2166497;81;21387;-80
2021/09/29 09:25:15;;;;;;;23.87;15.40;;;;;;;13.57;65.29;99464.42;2168007;81;21675;-79
2021/09/29 09:28:16;;;;;;;26.07;15.65;;;;;;;13.58;65.42;99461.81;2168630;81;20961;-80
2021/09/29 09:31:16;;;;;;;31.60;16.32;;;;;;;13.48;65.28;99452.53;2169126;81;20929;-80
2021/09/29 09:34:16;;;;;;;29.98;15.65;;;;;;;13.43;65.83;99456.84;2170588;81;21024;-79
2021/09/29 09:37:18;;;;;;;24.27;15.03;;;;;;;13.41;65.70;99455.52;2168931;82;20957;-80
2021/09/29 09:40:20;;;;;;;110.03;23.45;;;;;;;13.47;65.94;99453.39;2169500;81;20952;-79
2021/09/29 09:43:21;;;;;;;35.13;15.05;;;;;;;13.52;66.02;99449.95;2170346;81;21333;-83
2021/09/29 09:46:22;;;;;;;30.88;15.85;;;;;;;13.66;66.05;99448.33;2169352;81;20953;-79
2021/09/29 09:49:23;;;;;;;25.20;15.90;;;;;;;13.68;65.45;99442.67;2168483;82;20967;-79
2021/09/29 09:52:24;;;;;;;29.37;15.63;;;;;;;13.57;65.76;99444.75;2168791;81;21380;-79
2021/09/29 09:55:25;;;;;;;32.05;15.20;;;;;;;13.49;65.82;99445.11;2169508;81;21663;-80
2021/09/29 09:58:26;;;;;;;27.10;14.40;;;;;;;13.46;66.26;99447.27;2169232;81;21047;-80
2021/09/29 10:01:28;;;;;;;31.30;15.35;;;;;;;13.39;66.35;99448.07;2170343;81;20985;-80
2021/09/29 10:04:29;;;;;;;28.07;14.63;;;;;;;13.29;66.63;99452.34;2168710;81;21355;-78
2021/09/29 10:07:30;;;;;;;29.45;16.17;;;;;;;13.32;66.88;99451.49;2168508;81;20972;-81
2021/09/29 10:10:46;;;;;;;26.55;14.03;;;;;;;13.29;66.74;99453.66;2167972;81;21419;-79
2021/09/29 10:23:58;;;;;;;26.52;14.98;;;;;;;13.39;67.16;99445.02;2169362;82;21408;-79
2021/09/29 10:26:43;;;;;;;26.52;14.87;;;;;;;13.52;67.12;99446.45;2166765;81;21063;-79
2021/09/29 10:29:46;;;;;;;50.30;15.75;;;;;;;13.65;66.88;99445.27;2168391;81;21297;-79
2021/09/29 10:32:49;;;;;;;38.15;14.28;;;;;;;13.68;66.67;99444.41;2167781;81;20976;-80
2021/09/29 10:36:01;;;;;;;23.10;13.55;;;;;;;13.60;66.51;99441.72;2168209;81;21086;-81
2021/09/29 10:42:22;;;;;;;25.15;14.13;;;;;;;13.42;67.17;99455.09;2169294;82;20991;-80
2021/09/29 10:45:31;;;;;;;23.15;14.95;;;;;;;13.49;67.61;99445.11;2169692;81;21044;-79
2021/09/29 11:03:05;;;;;;;19.80;13.03;;;;;;;14.05;65.95;99430.30;2169075;82;21328;-80
2021/09/29 11:27:46;;;;;;;89.17;19.00;;;;;;;14.78;64.10;99415.02;2165526;82;21016;-79
2021/09/29 11:30:45;;;;;;;20.82;14.28;;;;;;;14.73;64.12;99416.28;2177701;81;20972;-79
2021/09/29 11:33:51;;;;;;;22.13;14.85;;;;;;;14.65;63.61;99420.63;2176461;81;21068;-81
2021/09/29 11:40:06;;;;;;;21.12;14.35;;;;;;;14.56;64.20;99415.33;2160592;82;21359;-81
2021/09/29 12:09:17;;;;;;;27.02;15.28;;;;;;;14.72;63.57;99407.08;2166827;82;20964;-80
2021/09/29 12:12:31;;;;;;;25.37;15.18;;;;;;;14.83;63.28;99402.34;2167853;81;20944;-81
2021/09/29 12:15:30;;;;;;;;;;;;;;;15.04;63.02;99407.23;2171189;81;20984;-82
2021/09/29 12:18:30;;;;;;;25.45;15.55;;;;;;;15.17;62.12;99407.26;2170325;81;20395;-80
2021/09/29 12:21:32;;;;;;;18.25;14.38;;;;;;;15.39;62.44;99401.59;2168853;81;20937;-83
2021/09/29 12:24:35;;;;;;;26.65;15.18;;;;;;;15.57;62.15;99408.63;2169463;81;20956;-84
2021/09/29 12:27:37;;;;;;;23.87;15.72;;;;;;;15.72;61.39;99407.83;2169045;81;20976;-82
2021/09/29 12:30:41;;;;;;;19.17;15.38;;;;;;;15.80;60.95;99402.12;2168637;81;20945;-80
2021/09/29 12:36:58;;;;;;;26.40;15.18;;;;;;;15.71;61.12;99403.44;2170527;82;21012;-82
2021/09/29 12:39:59;;;;;;;19.80;15.50;;;;;;;15.79;60.59;99401.69;2168195;81;20941;-81
2021/09/29 12:42:59;;;;;;;18.77;14.95;;;;;;;15.63;60.53;99402.12;2168500;81;20993;-80
2021/09/29 12:46:00;;;;;;;20.90;15.15;;;;;;;15.71;60.13;99402.12;2167856;81;20944;-80
2021/09/29 12:49:08;;;;;;;20.12;15.38;;;;;;;15.71;60.13;99402.12;2168654;81;21000;-80
2021/09/29 12:52:12;;;;;;;25.27;18.45;;;;;;;15.74;60.46;99404.32;2167417;81;21020;-82
2021/09/29 12:55:19;;;;;;;23.73;15.55;;;;;;;15.77;61.20;99401.69;2168230;81;21684;-82
2021/09/29 12:58:15;;;;;;;22.85;15.95;;;;;;;15.79;61.07;99401.25;2167873;81;21001;-81
2021/09/29 13:01:16;;;;;;;20.12;15.72;;;;;;;15.76;61.40;99399.94;2169101;81;20997;-81
2021/09/29 13:04:16;;;;;;;21.52;15.05;;;;;;;15.83;61.27;99387.20;2168503;81;21008;-83
2021/09/29 13:07:17;;;;;;;29.37;15.48;;;;;;;15.68;61.67;99385.02;2168659;82;21063;-82
2021/09/29 13:10:17;;;;;;;19.95;15.28;;;;;;;15.67;62.00;99389.84;2169319;81;20917;-84
2021/09/29 13:13:18;;;;;;;19.05;16.20;;;;;;;16.10;61.97;99390.69;2169678;81;20937;-82
2021/09/29 13:16:20;;;;;;;19.30;15.38;;;;;;;16.09;61.06;99392.44;2169051;81;20932;-82
2021/09/29 13:19:26;;;;;;;23.00;16.50;;;;;;;15.76;61.62;99392.03;2169086;82;20948;-83
2021/09/29 13:22:25;;;;;;;22.55;14.93;;;;;;;15.58;62.32;99397.27;2170111;81;21356;-84
2021/09/29 13:25:54;;;;;;;23.83;15.68;;;;;;;15.52;62.70;99391.97;2168410;81;20937;-83
2021/09/29 13:36:32;;;;;;;20.65;14.83;;;;;;;15.51;63.08;99382.31;2159459;82;21030;-83
2021/09/29 13:38:16;;;;;;;18.32;15.00;;;;;;;15.48;63.88;99377.05;2165477;82;21051;-83
2021/09/29 13:41:17;;;;;;;26.60;15.83;;;;;;;15.40;63.80;99386.70;2167371;81;21390;-82
2021/09/29 13:44:17;;;;;;;20.50;15.08;;;;;;;15.29;63.94;99380.11;2167474;81;20964;-82
2021/09/29 13:47:18;;;;;;;24.37;16.07;;;;;;;15.22;64.38;99380.97;2166784;81;20992;-82
2021/09/29 13:50:20;;;;;;;30.02;17.52;;;;;;;15.04;64.90;99375.67;2167791;81;21364;-80
2021/09/29 13:53:21;;;;;;;24.10;15.70;;;;;;;15.04;64.90;99375.67;2169473;81;20964;-82
2021/09/29 13:56:26;;;;;;;23.62;16.35;;;;;;;14.97;65.49;99377.41;2167975;81;20941;-77
2021/09/29 14:03:05;;;;;;;47.00;18.07;;;;;;;14.78;66.15;99374.29;2168294;82;21451;-84
2021/09/29 14:29:07;;;;;;;25.72;15.63;;;;;;;14.74;67.69;99352.78;2169596;82;20964;-82
2021/09/29 14:35:00;;;;;;;19.12;14.45;;;;;;;14.74;68.38;99357.63;2158310;82;20933;-81
2021/09/29 14:38:00;;;;;;;31.27;15.85;;;;;;;14.71;68.52;99359.34;2168764;81;20977;-82
2021/09/29 14:41:01;;;;;;;23.83;14.83;;;;;;;14.68;68.87;99356.27;2170109;81;20984;-81
2021/09/29 14:44:02;;;;;;;19.40;14.45;;;;;;;14.63;68.81;99352.31;2169697;81;20996;-81
2021/09/29 14:47:09;;;;;;;23.62;14.50;;;;;;;14.59;69.25;99360.17;2171535;81;20996;-81
2021/09/29 14:50:05;;;;;;;22.93;14.93;;;;;;;14.54;69.44;99361.47;2169667;81;21033;-82
2021/09/29 14:53:05;;;;;;;30.02;15.83;;;;;;;14.50;69.58;99360.14;2168676;81;20953;-82
2021/09/29 14:56:06;;;;;;;23.57;14.07;;;;;;;14.45;69.86;99349.61;2169320;81;20976;-82
2021/09/29 14:59:06;;;;;;;16.62;13.35;;;;;;;14.42;70.21;99357.48;2169666;81;21390;-84
2021/09/29 15:02:07;;;;;;;40.05;15.32;;;;;;;14.38;70.32;99359.61;2171398;81;20968;-80
2021/09/29 15:05:07;;;;;;;21.52;15.15;;;;;;;14.37;70.55;99356.98;2170404;81;21028;-81
2021/09/29 15:08:08;;;;;;;22.87;17.52;;;;;;;14.36;70.81;99361.36;2171545;81;21398;-81
2021/09/29 15:11:09;;;;;;;30.02;19.42;;;;;;;14.33;70.98;99354.34;2171421;81;21819;-81
2021/09/29 15:14:13;;;;;;;24.57;15.38;;;;;;;14.31;71.17;99349.95;2171613;81;20963;-81
2021/09/29 15:20:21;;;;;;;27.17;15.55;;;;;;;14.31;71.44;99349.52;2170530;82;21059;-83
2021/09/29 15:30:07;;;;;;;20.08;14.85;;;;;;;14.35;71.51;99356.54;2163009;82;21053;-83
2021/09/29 15:52:38;;;;;;;23.38;14.50;;;;;;;14.31;72.40;99343.38;2099094;83;21158;-81
2021/09/29 16:01:56;;;;;;;17.95;13.38;;;;;;;14.27;72.85;99336.36;2098794;84;20981;-81
2021/09/29 16:05:30;;;;;;;23.73;14.55;;;;;;;14.28;72.96;99342.05;2098714;84;20976;-80
2021/09/29 16:30:26;;;;;;;25.70;14.35;;;;;;;14.00;74.23;99338.41;2099003;84;21037;-79
2021/09/29 16:33:32;;;;;;;22.37;13.60;;;;;;;13.89;74.70;99334.84;2098942;84;21021;-80
2021/09/29 16:36:28;;;;;;;23.38;14.10;;;;;;;13.76;74.68;99339.09;2098111;84;21052;-80
2021/09/29 16:39:29;;;;;;;21.23;13.90;;;;;;;13.66;74.75;99336.84;2099307;85;20949;-80
2021/09/29 16:42:29;;;;;;;22.70;15.35;;;;;;;13.57;75.22;99338.52;2099438;85;20972;-80
2021/09/29 16:45:30;;;;;;;21.80;15.58;;;;;;;13.49;75.39;99337.14;2099432;85;20945;-80
2021/09/29 16:48:33;;;;;;;26.12;16.00;;;;;;;13.45;76.51;99330.13;2099063;85;21390;-79
2021/09/29 16:51:47;;;;;;;26.10;16.62;;;;;;;13.38;75.76;99329.20;2098300;85;21124;-81
2021/09/29 16:54:45;;;;;;;26.77;16.07;;;;;;;13.34;75.95;99337.90;2098110;84;21013;-79
2021/09/29 16:57:48;;;;;;;32.28;16.48;;;;;;;13.31;75.90;99337.87;2098317;85;21044;-81
2021/09/29 17:01:04;;;;;;;25.35;15.05;;;;;;;13.26;76.13;99331.71;2099039;84;21064;-81
2021/09/29 17:04:00;;;;;;;24.95;16.80;;;;;;;13.22;76.83;99326.00;2098028;84;21033;-81
2021/09/29 17:07:00;;;;;;;26.07;15.15;;;;;;;13.20;76.52;99329.47;2098745;85;21011;-80
2021/09/29 17:10:01;;;;;;;25.72;15.75;;;;;;;13.18;76.39;99331.20;2098646;85;21015;-81
2021/09/29 17:13:03;;;;;;;29.65;14.93;;;;;;;13.17;76.37;99338.62;2099752;85;21433;-81
2021/09/29 17:16:05;;;;;;;27.73;17.10;;;;;;;13.17;76.26;99336.88;2087086;85;20969;-82
2021/09/29 17:22:09;;;;;;;27.58;16.55;;;;;;;13.17;76.21;99330.32;2087443;85;20953;-82
2021/09/29 17:28:18;;;;;;;23.80;14.53;;;;;;;13.18;76.00;99337.32;2087610;85;21027;-82
2021/09/29 17:31:18;;;;;;;29.52;15.58;;;;;;;13.16;75.74;99332.46;2099791;84;21036;-80